Time;durP1;ratioP1;P1;durP2;ratioP2;P2;SDS_P1;SDS_P2;PMS_P1;PMS_P2;Temp;Humidity;BMP_temperature;BMP_pressure;BME280_temperature;BME280_humidity;BME280_pressure;Samples;Min_cycle;Max_cycle;Signal;HPM_P1;HPM_P2
2024/01/12 00:01:31;;;;;;;6.67;2.47;;;;;;;-2.44;85.87;101161.72;4984294;28;20238;-54
2024/01/12 00:03:59;;;;;;;5.57;2.40;;;;;;;-2.42;85.91;101161.81;4999918;28;20720;-55
2024/01/12 00:06:28;;;;;;;4.30;2.10;;;;;;;-2.40;86.16;101167.81;4997266;28;20212;-55
2024/01/12 00:08:56;;;;;;;6.23;2.67;;;;;;;-2.39;86.43;101166.16;4995163;28;20206;-54
2024/01/12 00:11:24;;;;;;;6.33;2.27;;;;;;;-2.40;85.58;101161.91;4994734;28;20206;-55
2024/01/12 00:13:52;;;;;;;6.77;2.87;;;;;;;-2.35;85.44;101175.69;4996282;28;20200;-54
2024/01/12 00:16:21;;;;;;;5.70;2.57;;;;;;;-2.36;85.36;101176.44;4997166;28;20208;-54
2024/01/12 00:18:49;;;;;;;5.73;2.27;;;;;;;-2.35;85.40;101171.50;4993860;28;20200;-61
2024/01/12 00:21:17;;;;;;;5.27;2.37;;;;;;;-2.29;85.07;101176.00;4991776;28;20647;-56
2024/01/12 00:23:48;;;;;;;5.50;2.20;;;;;;;-2.31;85.32;101178.47;4993986;28;20246;-57
2024/01/12 00:26:16;;;;;;;6.20;2.60;;;;;;;-2.32;85.10;101166.63;4999061;28;20203;-58
2024/01/12 00:28:44;;;;;;;3.63;1.97;;;;;;;-2.32;85.33;101169.16;4994293;28;20718;-55
2024/01/12 00:31:13;;;;;;;4.53;2.07;;;;;;;-2.34;85.49;101163.13;4994829;28;20200;-52
2024/01/12 00:33:41;;;;;;;5.80;2.17;;;;;;;-2.35;85.17;101165.59;4994039;28;20204;-51
2024/01/12 00:36:09;;;;;;;6.80;2.43;;;;;;;-2.38;84.98;101171.31;5003219;28;20215;-54
2024/01/12 00:38:37;;;;;;;4.67;2.20;;;;;;;-2.38;84.93;101170.44;4995032;28;20208;-51
2024/01/12 00:41:06;;;;;;;5.90;2.37;;;;;;;-2.40;84.71;101156.84;4995386;28;20211;-51
2024/01/12 00:43:34;;;;;;;3.73;2.20;;;;;;;-2.41;84.78;101160.16;5001197;28;20215;-59
2024/01/12 00:46:03;;;;;;;4.70;2.17;;;;;;;-2.44;84.95;101154.16;5001397;28;20204;-56
2024/01/12 00:48:31;;;;;;;4.80;1.93;;;;;;;-2.45;84.66;101149.88;4997418;28;20197;-57
2024/01/12 00:50:59;;;;;;;6.27;2.00;;;;;;;-2.47;84.43;101166.59;4996451;28;20212;-59
2024/01/12 00:53:28;;;;;;;5.27;1.93;;;;;;;-2.50;83.83;101171.47;5001978;28;20604;-51
2024/01/12 00:55:56;;;;;;;3.93;2.07;;;;;;;-2.53;83.51;101172.94;4998150;28;20205;-54
2024/01/12 00:58:25;;;;;;;5.40;2.13;;;;;;;-2.56;83.71;101186.22;4998955;28;20223;-57
2024/01/12 01:00:53;;;;;;;5.40;2.43;;;;;;;-2.57;83.25;101189.53;4993309;28;20208;-55
2024/01/12 01:03:21;;;;;;;4.57;2.13;;;;;;;-2.59;83.17;101191.09;4996462;28;20216;-52
2024/01/12 01:05:49;;;;;;;5.10;2.03;;;;;;;-2.61;83.34;101195.19;4994348;28;20207;-57
2024/01/12 01:08:17;;;;;;;7.50;2.47;;;;;;;-2.64;83.03;101197.53;4995528;28;20203;-54
2024/01/12 01:10:46;;;;;;;4.57;2.53;;;;;;;-2.65;83.49;101200.84;4996812;28;20245;-62
2024/01/12 01:13:14;;;;;;;2.67;1.90;;;;;;;-2.67;82.80;101197.34;4989649;28;20284;-57
2024/01/12 01:15:44;;;;;;;6.27;2.50;;;;;;;-2.68;82.56;101203.19;4994592;28;20650;-53
2024/01/12 01:18:11;;;;;;;3.97;2.20;;;;;;;-2.65;82.78;101208.41;4997243;28;20686;-53
2024/01/12 01:20:40;;;;;;;4.00;2.07;;;;;;;-2.69;82.04;101203.94;4992642;28;20200;-53
2024/01/12 01:23:08;;;;;;;5.10;1.80;;;;;;;-2.74;81.64;101205.31;4993805;28;20275;-54
2024/01/12 01:25:37;;;;;;;6.03;1.50;;;;;;;-2.81;81.24;101208.25;4994335;28;20675;-61
2024/01/12 01:28:05;;;;;;;1.77;1.40;;;;;;;-2.85;79.55;101207.19;4996217;28;20207;-58
2024/01/12 01:30:33;;;;;;;1.80;1.27;;;;;;;-2.89;79.72;101225.44;4990538;28;20262;-56
2024/01/12 01:33:02;;;;;;;3.10;2.00;;;;;;;-2.93;78.88;101229.41;4992148;28;20652;-59
2024/01/12 01:35:32;;;;;;;2.63;1.63;;;;;;;-2.95;78.98;101230.09;4993810;28;20208;-55
2024/01/12 01:38:00;;;;;;;4.93;1.50;;;;;;;-2.98;78.83;101232.44;4993530;28;20291;-56
2024/01/12 01:40:28;;;;;;;3.20;1.30;;;;;;;-2.99;78.90;101241.63;4996921;28;20659;-54
2024/01/12 01:42:56;;;;;;;4.30;1.57;;;;;;;-2.99;78.14;101254.25;4996454;28;20644;-52
2024/01/12 01:45:24;;;;;;;2.10;1.10;;;;;;;-2.97;78.60;101261.91;4995521;28;20382;-52
2024/01/12 01:47:52;;;;;;;2.30;1.20;;;;;;;-3.00;77.20;101262.59;4993496;28;20253;-58
2024/01/12 01:50:20;;;;;;;1.90;1.10;;;;;;;-3.01;77.56;101263.38;4995624;28;20250;-55
2024/01/12 01:52:48;;;;;;;1.77;1.07;;;;;;;-2.97;77.84;101272.00;4993873;28;20219;-54
2024/01/12 01:55:17;;;;;;;3.57;1.23;;;;;;;-2.99;76.92;101276.06;4997790;28;20718;-54
2024/01/12 01:57:47;;;;;;;1.53;1.07;;;;;;;-3.04;75.14;101278.31;4989576;28;20231;-63
2024/01/12 02:00:16;;;;;;;1.13;1.00;;;;;;;-3.05;76.16;101271.53;4994582;28;20651;-60
2024/01/12 02:02:44;;;;;;;1.70;1.03;;;;;;;-3.08;75.37;101263.75;5004065;28;20206;-54
2024/01/12 02:05:13;;;;;;;3.97;1.40;;;;;;;-3.05;75.22;101269.00;4989944;28;20220;-54
2024/01/12 02:07:43;;;;;;;2.63;1.10;;;;;;;-3.07;74.76;101269.69;4993631;28;20265;-56
2024/01/12 02:10:11;;;;;;;2.40;1.20;;;;;;;-3.11;75.39;101277.81;4998391;28;20772;-56
2024/01/12 02:12:40;;;;;;;2.33;1.10;;;;;;;-3.13;75.09;101279.38;4993944;28;20254;-56
2024/01/12 02:15:08;;;;;;;1.23;0.90;;;;;;;-3.15;75.21;101271.72;4997625;28;20617;-52
2024/01/12 02:17:37;;;;;;;3.23;1.20;;;;;;;-3.16;75.28;101277.53;4997768;28;20215;-57
2024/01/12 02:20:06;;;;;;;1.80;1.07;;;;;;;-3.17;75.07;101268.22;4997600;28;20255;-55
2024/01/12 02:22:36;;;;;;;2.77;1.37;;;;;;;-3.20;75.58;101268.03;4996080;28;20243;-56
2024/01/12 02:25:05;;;;;;;1.17;0.90;;;;;;;-3.24;74.76;101273.63;5003803;28;20700;-53
2024/01/12 02:27:33;;;;;;;1.53;1.10;;;;;;;-3.28;75.75;101266.66;4989071;28;20286;-54
2024/01/12 02:30:01;;;;;;;2.63;1.57;;;;;;;-3.33;75.18;101280.63;4994723;28;20287;-51
2024/01/12 02:32:29;;;;;;;3.17;1.07;;;;;;;-3.37;74.91;101284.59;4999177;28;20290;-57
2024/01/12 02:34:57;;;;;;;4.43;1.30;;;;;;;-3.43;75.03;101287.59;4996059;28;20610;-56
2024/01/12 02:37:25;;;;;;;1.60;1.00;;;;;;;-3.46;74.90;101292.44;4991627;28;20672;-53
2024/01/12 02:39:54;;;;;;;2.47;1.07;;;;;;;-3.47;75.08;101299.88;4990401;28;20590;-53
2024/01/12 02:42:22;;;;;;;3.43;1.10;;;;;;;-3.51;74.47;101296.28;4996005;28;20634;-56
2024/01/12 02:44:50;;;;;;;1.13;0.90;;;;;;;-3.54;74.41;101298.63;4999168;28;20274;-55
2024/01/12 02:47:18;;;;;;;2.47;1.30;;;;;;;-3.55;74.32;101296.88;4994118;28;20210;-55
2024/01/12 02:49:46;;;;;;;4.07;1.23;;;;;;;-3.59;73.96;101291.56;4992469;28;20570;-54
2024/01/12 02:52:14;;;;;;;2.87;1.20;;;;;;;-3.66;73.28;101291.13;4981036;28;21048;-56
2024/01/12 02:54:42;;;;;;;3.03;1.10;;;;;;;-3.70;73.35;101290.84;4990931;28;20322;-52
2024/01/12 02:57:15;;;;;;;2.00;1.00;;;;;;;-3.71;73.63;101289.09;4995359;28;20290;-54
2024/01/12 02:59:43;;;;;;;1.43;0.77;;;;;;;-3.71;72.90;101294.16;4999778;28;20228;-57
2024/01/12 03:02:11;;;;;;;1.60;0.80;;;;;;;-3.75;73.23;101293.06;4995473;28;20212;-53
2024/01/12 03:04:38;;;;;;;1.93;1.10;;;;;;;-3.80;73.15;101284.31;4991861;28;20586;-57
2024/01/12 03:07:06;;;;;;;4.10;1.07;;;;;;;-3.82;72.77;101298.47;4998720;28;20211;-55
2024/01/12 03:09:34;;;;;;;2.07;1.37;;;;;;;-3.81;73.31;101299.34;4989049;28;20896;-54
2024/01/12 03:12:03;;;;;;;2.43;1.00;;;;;;;-3.81;72.80;101311.94;4996758;28;20671;-54
2024/01/12 03:14:32;;;;;;;1.70;1.00;;;;;;;-3.82;71.98;101303.50;4997902;28;20338;-53
2024/01/12 03:17:00;;;;;;;3.27;0.80;;;;;;;-3.83;72.28;101306.78;4985094;28;20200;-60
2024/01/12 03:19:28;;;;;;;1.87;1.23;;;;;;;-3.83;72.73;101300.88;4990697;28;20675;-55
2024/01/12 03:21:56;;;;;;;3.27;0.93;;;;;;;-3.83;72.66;101298.34;4997884;28;20253;-52
2024/01/12 03:24:24;;;;;;;2.47;1.10;;;;;;;-3.82;72.70;101301.00;4998436;28;20642;-54
2024/01/12 03:26:52;;;;;;;1.40;1.20;;;;;;;-3.81;72.89;101305.25;5001127;28;20746;-56
2024/01/12 03:29:20;;;;;;;1.80;1.17;;;;;;;-3.82;72.29;101302.63;4999856;28;20744;-53
2024/01/12 03:31:50;;;;;;;2.97;1.13;;;;;;;-3.87;71.55;101302.31;4999326;28;20208;-59
2024/01/12 03:34:17;;;;;;;2.20;0.97;;;;;;;-3.92;71.93;101296.97;5003914;28;20230;-55
2024/01/12 03:36:46;;;;;;;2.63;1.13;;;;;;;-3.93;72.39;101294.38;4994995;28;20580;-58
2024/01/12 03:39:14;;;;;;;1.87;1.10;;;;;;;-3.94;72.04;101293.50;5001899;28;20199;-61
2024/01/12 03:41:42;;;;;;;2.17;1.10;;;;;;;-3.96;71.98;101302.59;5001365;28;20214;-58
2024/01/12 03:44:10;;;;;;;1.77;1.00;;;;;;;-4.00;71.68;101305.66;4998581;28;20656;-60
2024/01/12 03:46:38;;;;;;;1.53;1.10;;;;;;;-4.01;71.69;101300.53;4998362;28;20216;-54
2024/01/12 03:49:07;;;;;;;2.97;1.20;;;;;;;-4.05;71.54;101298.56;5001794;28;20223;-65
2024/01/12 03:51:35;;;;;;;1.13;1.00;;;;;;;-4.09;72.30;101305.03;4993520;28;20215;-56
2024/01/12 03:54:03;;;;;;;2.83;0.97;;;;;;;-4.12;72.22;101302.34;4995554;28;20579;-53
2024/01/12 03:56:32;;;;;;;2.00;1.20;;;;;;;-4.16;71.83;101305.38;4999761;28;20207;-55
2024/01/12 03:59:00;;;;;;;1.70;1.20;;;;;;;-4.23;71.85;101309.16;5004023;28;20631;-54
2024/01/12 04:01:28;;;;;;;1.40;1.03;;;;;;;-4.29;71.99;101307.88;4997675;28;20249;-56
2024/01/12 04:03:55;;;;;;;2.83;1.33;;;;;;;-4.32;72.35;101317.72;4998336;28;20263;-56
2024/01/12 04:06:25;;;;;;;1.60;1.20;;;;;;;-4.39;71.92;101327.34;4993141;28;20215;-56
2024/01/12 04:08:53;;;;;;;3.37;1.10;;;;;;;-4.44;71.80;101333.72;4997434;28;20204;-60
2024/01/12 04:11:22;;;;;;;1.53;1.07;;;;;;;-4.49;72.48;101337.56;4996198;28;20212;-52
2024/01/12 04:13:50;;;;;;;1.30;0.90;;;;;;;-4.51;72.53;101328.16;5003551;28;20745;-51
2024/01/12 04:16:19;;;;;;;2.47;1.30;;;;;;;-4.51;72.82;101325.63;4994098;28;20204;-56
2024/01/12 04:18:46;;;;;;;2.40;1.20;;;;;;;-4.50;72.65;101335.78;4996781;28;20207;-54
2024/01/12 04:21:15;;;;;;;1.33;1.20;;;;;;;-4.48;72.58;101329.25;4999087;28;20204;-52
2024/01/12 04:23:44;;;;;;;1.87;1.40;;;;;;;-4.49;72.65;101336.66;4998343;28;20620;-54
2024/01/12 04:26:11;;;;;;;2.77;1.50;;;;;;;-4.54;72.47;101336.34;5002048;28;20234;-53
2024/01/12 04:28:39;;;;;;;2.63;1.70;;;;;;;-4.55;72.80;101332.09;5003506;28;20226;-53
2024/01/12 04:31:07;;;;;;;3.43;1.83;;;;;;;-4.61;72.68;101325.00;4997455;28;20254;-54
2024/01/12 04:33:35;;;;;;;5.63;2.27;;;;;;;-4.59;72.66;101334.31;4996881;28;20313;-61
2024/01/12 04:36:07;;;;;;;8.07;2.50;;;;;;;-4.60;72.54;101330.91;4995504;28;20236;-51
2024/01/12 04:38:35;;;;;;;6.10;2.50;;;;;;;-4.65;72.08;101329.69;4991866;28;20206;-53
2024/01/12 04:41:04;;;;;;;4.27;1.90;;;;;;;-4.66;72.52;101340.53;4999279;28;20214;-53
2024/01/12 04:43:32;;;;;;;3.67;2.27;;;;;;;-4.67;72.55;101334.63;5003698;28;20603;-58
2024/01/12 04:46:00;;;;;;;5.17;2.30;;;;;;;-4.66;72.79;101338.03;4995162;28;20326;-57
2024/01/12 04:48:28;;;;;;;4.47;1.93;;;;;;;-4.66;72.84;101346.44;5002236;28;20204;-54
2024/01/12 04:50:56;;;;;;;5.03;2.10;;;;;;;-4.68;72.75;101340.41;4999259;28;20246;-53
2024/01/12 04:53:25;;;;;;;7.10;2.70;;;;;;;-4.69;72.52;101341.19;5002239;28;20235;-53
2024/01/12 04:55:53;;;;;;;6.43;2.37;;;;;;;-4.68;72.67;101342.06;4993774;28;20210;-52
2024/01/12 04:58:22;;;;;;;4.53;2.40;;;;;;;-4.69;72.75;101347.84;4995473;28;20568;-52
2024/01/12 05:00:50;;;;;;;6.33;2.33;;;;;;;-4.70;72.50;101354.53;5003389;28;20689;-55
2024/01/12 05:03:18;;;;;;;4.10;2.43;;;;;;;-4.72;72.24;101350.16;5000751;28;20217;-55
2024/01/12 05:05:47;;;;;;;3.90;2.30;;;;;;;-4.72;72.54;101340.97;4999402;28;20230;-57
2024/01/12 05:08:15;;;;;;;4.13;2.27;;;;;;;-4.69;72.82;101341.19;5000450;28;20302;-55
2024/01/12 05:10:43;;;;;;;3.70;2.13;;;;;;;-4.68;72.63;101347.09;5000670;28;20203;-54
2024/01/12 05:13:11;;;;;;;5.43;2.50;;;;;;;-4.68;72.39;101342.91;4999923;28;20200;-54
2024/01/12 05:15:41;;;;;;;3.00;1.90;;;;;;;-4.68;72.75;101342.91;4997129;28;20273;-60
2024/01/12 05:18:08;;;;;;;4.43;2.10;;;;;;;-4.66;73.43;101338.88;4999737;28;20660;-55
2024/01/12 05:20:37;;;;;;;2.67;1.87;;;;;;;-4.67;72.92;101342.19;4998530;28;20287;-52
2024/01/12 05:23:05;;;;;;;4.03;2.20;;;;;;;-4.70;72.75;101344.47;4994129;28;20730;-54
2024/01/12 05:25:35;;;;;;;5.67;2.00;;;;;;;-4.68;73.01;101342.06;5003911;28;20203;-57
2024/01/12 05:28:03;;;;;;;3.87;2.17;;;;;;;-4.70;72.48;101349.50;4993483;28;20235;-56
2024/01/12 05:30:31;;;;;;;5.10;2.20;;;;;;;-4.70;72.80;101358.69;4993087;28;20296;-57
2024/01/12 05:33:00;;;;;;;3.73;2.30;;;;;;;-4.73;72.49;101354.31;5004814;28;20203;-56
2024/01/12 05:35:28;;;;;;;3.00;1.70;;;;;;;-4.74;71.82;101352.56;4991357;28;20257;-55
2024/01/12 05:37:56;;;;;;;5.73;2.27;;;;;;;-4.71;72.40;101346.91;4995371;28;20200;-55
2024/01/12 05:40:24;;;;;;;3.50;1.87;;;;;;;-4.69;72.25;101345.34;5004694;28;20203;-60
2024/01/12 05:42:52;;;;;;;5.40;2.40;;;;;;;-4.66;72.41;101350.59;4995199;28;20610;-50
2024/01/12 05:45:20;;;;;;;7.10;2.50;;;;;;;-4.65;71.97;101342.28;4994968;28;20655;-52
2024/01/12 05:47:48;;;;;;;4.47;1.83;;;;;;;-4.65;71.94;101349.81;4990670;28;20220;-56
2024/01/12 05:50:18;;;;;;;4.80;2.10;;;;;;;-4.70;71.18;101338.56;4998131;28;20214;-55
2024/01/12 05:52:47;;;;;;;2.77;1.77;;;;;;;-4.69;71.31;101342.84;4988210;28;20203;-53
2024/01/12 05:55:15;;;;;;;3.47;1.73;;;;;;;-4.68;71.62;101342.91;4994874;28;20208;-62
2024/01/12 05:57:43;;;;;;;3.33;2.10;;;;;;;-4.64;71.89;101341.50;4993725;28;20203;-61
2024/01/12 06:00:12;;;;;;;4.33;2.20;;;;;;;-4.64;71.71;101334.84;5003211;28;20792;-54
2024/01/12 06:02:40;;;;;;;2.63;1.80;;;;;;;-4.63;71.62;101335.72;4993809;28;20204;-54
2024/01/12 06:05:08;;;;;;;7.20;2.20;;;;;;;-4.65;71.93;101337.25;4996684;28;20273;-55
2024/01/12 06:07:38;;;;;;;6.87;2.47;;;;;;;-4.65;72.15;101339.75;4993009;28;20228;-52
2024/01/12 06:10:07;;;;;;;2.63;1.67;;;;;;;-4.65;72.00;101339.75;4996331;28;20552;-56
2024/01/12 06:12:35;;;;;;;6.20;2.10;;;;;;;-4.65;71.61;101334.72;4994702;28;20673;-52
2024/01/12 06:15:04;;;;;;;4.70;2.13;;;;;;;-4.63;72.20;101331.56;4991355;28;20212;-55
2024/01/12 06:17:32;;;;;;;2.93;2.17;;;;;;;-4.62;71.92;101328.28;4993346;28;20199;-56
2024/01/12 06:20:00;;;;;;;2.93;2.00;;;;;;;-4.60;71.98;101320.84;4991858;28;20271;-54
2024/01/12 06:22:28;;;;;;;3.23;2.00;;;;;;;-4.61;72.03;101326.63;4987053;28;20586;-55
2024/01/12 06:24:59;;;;;;;5.53;2.50;;;;;;;-4.60;72.06;101320.84;4997186;28;20663;-53
2024/01/12 06:27:27;;;;;;;2.63;1.87;;;;;;;-4.58;72.21;101321.81;5002269;28;20243;-60
2024/01/12 06:29:55;;;;;;;3.63;2.10;;;;;;;-4.56;72.04;101322.81;4994489;28;20258;-54
2024/01/12 06:32:23;;;;;;;3.47;2.30;;;;;;;-4.55;72.15;101328.72;4993124;28;20212;-54
2024/01/12 06:34:51;;;;;;;6.03;2.30;;;;;;;-4.55;72.22;101329.59;4999452;28;20214;-54
2024/01/12 06:37:19;;;;;;;4.20;2.30;;;;;;;-4.54;72.09;101330.44;4995747;28;20255;-62
2024/01/12 06:39:49;;;;;;;6.00;2.27;;;;;;;-4.54;72.07;101328.81;4998192;28;20211;-55
2024/01/12 06:42:18;;;;;;;5.70;2.57;;;;;;;-4.51;72.45;101333.19;4993829;28;20619;-54
2024/01/12 06:44:46;;;;;;;6.03;2.10;;;;;;;-4.51;72.09;101320.59;4991198;28;20208;-55
2024/01/12 06:47:14;;;;;;;4.33;2.23;;;;;;;-4.49;72.54;101330.03;4996735;28;20742;-53
2024/01/12 06:49:43;;;;;;;6.63;2.30;;;;;;;-4.46;72.11;101326.81;4992875;28;20215;-55
2024/01/12 06:52:10;;;;;;;4.83;2.27;;;;;;;-4.42;72.45;101328.78;5000269;28;20200;-51
2024/01/12 06:54:39;;;;;;;3.50;2.37;;;;;;;-4.38;72.24;101328.25;4996213;28;20199;-53
2024/01/12 06:57:06;;;;;;;5.57;2.70;;;;;;;-4.33;72.78;101331.06;4999276;28;20554;-56
2024/01/12 06:59:36;;;;;;;4.63;2.40;;;;;;;-4.29;72.86;101330.50;4991897;28;21341;-53
2024/01/12 07:02:07;;;;;;;5.07;2.20;;;;;;;-4.27;72.25;101331.47;4996544;28;20207;-54
2024/01/12 07:04:35;;;;;;;4.77;2.60;;;;;;;-4.27;72.30;101339.00;4994363;28;20211;-55
2024/01/12 07:07:04;;;;;;;5.47;2.33;;;;;;;-4.30;71.91;101342.22;5000629;28;20215;-57
2024/01/12 07:09:32;;;;;;;3.97;2.00;;;;;;;-4.30;72.55;101357.31;4997198;28;20282;-58
2024/01/12 07:12:00;;;;;;;5.10;2.30;;;;;;;-4.29;72.53;101355.66;4988898;28;20634;-56
2024/01/12 07:14:28;;;;;;;5.37;2.40;;;;;;;-4.28;72.34;101353.25;4994020;28;20255;-59
2024/01/12 07:16:58;;;;;;;4.70;2.50;;;;;;;-4.28;72.73;101353.25;4998432;28;20282;-57
2024/01/12 07:19:25;;;;;;;6.83;2.50;;;;;;;-4.27;72.82;101351.59;4992191;28;20228;-60
2024/01/12 07:21:54;;;;;;;5.97;2.67;;;;;;;-4.30;73.09;101353.94;4995317;28;20214;-60
2024/01/12 07:24:22;;;;;;;7.70;3.47;;;;;;;-4.35;72.93;101352.72;4995280;28;20327;-66
2024/01/12 07:26:50;;;;;;;6.37;3.30;;;;;;;-4.35;72.74;101357.75;4988665;28;20275;-60
2024/01/12 07:29:22;;;;;;;6.87;3.47;;;;;;;-4.43;73.03;101358.09;4997561;28;20787;-58
2024/01/12 07:31:50;;;;;;;8.97;3.47;;;;;;;-4.43;73.32;101347.16;4987742;28;20634;-58
2024/01/12 07:34:19;;;;;;;5.03;3.03;;;;;;;-4.43;73.22;101350.53;4994456;28;20242;-58
2024/01/12 07:36:47;;;;;;;6.07;3.90;;;;;;;-4.38;73.66;101351.75;4997159;28;20296;-61
2024/01/12 07:39:15;;;;;;;4.07;3.03;;;;;;;-4.35;73.16;101348.56;4987786;28;20207;-59
2024/01/12 07:41:43;;;;;;;5.27;3.30;;;;;;;-4.27;73.10;101339.91;4991878;28;20211;-61
2024/01/12 07:44:12;;;;;;;6.87;3.57;;;;;;;-4.20;73.66;101341.19;5000395;28;20235;-64
2024/01/12 07:46:40;;;;;;;7.10;3.90;;;;;;;-4.10;74.28;101341.06;4986936;28;20223;-59
2024/01/12 07:49:08;;;;;;;8.60;4.10;;;;;;;-4.01;74.08;101335.78;4989550;28;20210;-59
2024/01/12 07:51:38;;;;;;;6.47;3.73;;;;;;;-4.02;71.92;101334.88;4996414;28;20609;-60
2024/01/12 07:54:05;;;;;;;9.77;4.00;;;;;;;-4.01;72.83;101321.56;4994258;28;20581;-58
2024/01/12 07:56:33;;;;;;;12.73;6.53;;;;;;;-4.02;72.03;101324.81;4993698;28;20295;-56
2024/01/12 07:59:01;;;;;;;9.87;4.43;;;;;;;-4.06;72.64;101332.06;4994359;28;21632;-61
2024/01/12 08:01:29;;;;;;;7.53;4.33;;;;;;;-4.10;72.44;101325.06;4998005;28;20199;-56
2024/01/12 08:03:57;;;;;;;7.90;4.60;;;;;;;-4.17;72.12;101329.69;4996214;28;20200;-60
2024/01/12 08:06:25;;;;;;;11.73;5.03;;;;;;;-4.22;72.56;101320.09;4999776;28;20941;-61
2024/01/12 08:08:54;;;;;;;10.03;5.23;;;;;;;-4.26;72.53;101315.63;4996122;28;20380;-57
2024/01/12 08:11:23;;;;;;;13.77;5.10;;;;;;;-4.22;73.50;101310.03;4994525;28;21135;-59
2024/01/12 08:14:06;;;;;;;9.67;5.37;;;;;;;-4.18;73.31;101309.47;4994536;28;20208;-59
2024/01/12 08:16:34;;;;;;;10.87;6.17;;;;;;;-4.19;72.41;101305.22;4997996;28;20690;-58
2024/01/12 08:19:02;;;;;;;8.63;5.20;;;;;;;-4.26;72.34;101310.59;5001536;28;20284;-57
2024/01/12 08:21:30;;;;;;;11.57;5.97;;;;;;;-4.31;72.63;101299.31;4989951;28;20684;-63
2024/01/12 08:24:17;;;;;;;10.80;5.67;;;;;;;-4.33;73.21;101300.88;4993639;28;20257;-59
2024/01/12 08:26:45;;;;;;;13.40;6.07;;;;;;;-4.27;73.53;101296.25;4997768;28;20690;-59
2024/01/12 08:29:14;;;;;;;12.63;5.27;;;;;;;-4.19;73.55;101311.13;5000126;28;20266;-54
2024/01/12 08:31:43;;;;;;;12.13;5.30;;;;;;;-4.10;73.45;101305.81;5013110;28;20226;-55
2024/01/12 08:34:11;;;;;;;11.80;5.67;;;;;;;-4.02;73.34;101299.66;4993132;28;20577;-54
2024/01/12 08:36:39;;;;;;;8.97;4.70;;;;;;;-4.02;73.38;101298.78;4992610;28;20245;-53
2024/01/12 08:39:07;;;;;;;9.10;4.67;;;;;;;-3.96;72.98;101295.03;4999355;28;20595;-57
2024/01/12 08:41:37;;;;;;;9.63;4.40;;;;;;;-3.91;72.95;101286.13;4995000;28;20291;-54
2024/01/12 08:44:05;;;;;;;7.20;4.00;;;;;;;-3.77;73.09;101286.19;4999709;28;20290;-60
2024/01/12 08:46:33;;;;;;;7.93;4.17;;;;;;;-3.65;72.30;101297.03;5005076;28;20290;-59
2024/01/12 08:49:01;;;;;;;10.60;5.17;;;;;;;-3.57;71.90;101290.88;5000447;28;20227;-60
2024/01/12 08:51:30;;;;;;;10.77;4.97;;;;;;;-3.60;71.52;101288.16;4998765;28;20200;-60
2024/01/12 08:53:58;;;;;;;8.53;4.93;;;;;;;-3.55;70.81;101289.31;4999715;28;20590;-64
2024/01/12 08:56:26;;;;;;;7.97;4.23;;;;;;;-3.56;70.86;101294.28;4997048;28;20253;-61
2024/01/12 08:58:56;;;;;;;9.90;4.93;;;;;;;-3.53;70.11;101287.78;4996321;28;20192;-58
2024/01/12 09:01:24;;;;;;;10.23;5.53;;;;;;;-3.53;70.77;101277.72;4990976;28;20694;-59
2024/01/12 09:03:52;;;;;;;11.27;5.57;;;;;;;-3.43;69.64;101291.75;4990124;28;20207;-60
2024/01/12 09:06:23;;;;;;;10.87;5.80;;;;;;;-3.42;70.29;101296.91;4989908;28;20200;-62
2024/01/12 09:08:52;;;;;;;10.63;5.03;;;;;;;-3.48;69.99;101291.47;4997686;28;20579;-59
2024/01/12 09:11:20;;;;;;;7.20;4.40;;;;;;;-3.44;69.88;101287.50;4999261;28;20663;-60
2024/01/12 09:13:48;;;;;;;11.00;5.30;;;;;;;-3.36;70.13;101271.22;4996334;28;20266;-59
2024/01/12 09:16:18;;;;;;;10.23;4.37;;;;;;;-3.29;69.21;101259.88;4997994;28;20294;-59
2024/01/12 09:18:48;;;;;;;10.20;5.27;;;;;;;-3.33;68.72;101257.94;4994430;28;20270;-59
2024/01/12 09:21:16;;;;;;;8.60;4.90;;;;;;;-3.35;69.03;101269.56;4997455;28;20558;-64
2024/01/12 09:23:45;;;;;;;7.70;4.80;;;;;;;-3.40;68.17;101260.06;4994976;28;20290;-62
2024/01/12 09:26:14;;;;;;;10.43;4.50;;;;;;;-3.41;69.23;101260.84;4995402;28;20208;-60
2024/01/12 09:28:42;;;;;;;11.93;5.90;;;;;;;-3.41;68.01;101253.28;4990452;28;20668;-58
2024/01/12 09:31:09;;;;;;;9.83;5.40;;;;;;;-3.38;68.47;101257.66;4998658;28;20206;-59
2024/01/12 09:33:39;;;;;;;12.53;6.67;;;;;;;-3.34;68.20;101253.69;4996245;28;20200;-60
2024/01/12 09:36:08;;;;;;;9.33;5.73;;;;;;;-3.33;67.78;101245.34;4994545;28;20200;-60
2024/01/12 09:38:36;;;;;;;10.43;5.30;;;;;;;-3.35;68.70;101246.88;4995119;28;20203;-59
2024/01/12 09:41:04;;;;;;;11.80;5.43;;;;;;;-3.33;67.23;101240.31;5000855;28;20249;-59
2024/01/12 09:43:36;;;;;;;12.30;6.27;;;;;;;-3.32;67.97;101237.00;4994117;28;20207;-60
2024/01/12 09:46:08;;;;;;;11.53;6.73;;;;;;;-3.30;68.32;101241.38;4994797;28;20235;-58
2024/01/12 09:48:37;;;;;;;11.03;6.07;;;;;;;-3.35;67.53;101230.16;4999490;28;20219;-59
2024/01/12 09:51:07;;;;;;;13.17;6.37;;;;;;;-3.37;67.80;101230.81;4996891;28;20207;-64
2024/01/12 09:53:36;;;;;;;12.57;6.43;;;;;;;-3.48;67.25;101217.53;4997543;28;20254;-58
2024/01/12 09:56:05;;;;;;;11.93;5.97;;;;;;;-3.52;68.02;101218.13;4998104;28;20677;-55
2024/01/12 09:58:38;;;;;;;12.43;6.77;;;;;;;-3.51;67.47;101209.78;4993315;28;20668;-53
2024/01/12 10:01:08;;;;;;;13.13;6.37;;;;;;;-3.56;67.42;101217.06;4993620;28;20287;-51
2024/01/12 10:03:38;;;;;;;11.83;6.93;;;;;;;-3.64;66.99;101213.19;4997528;28;20211;-53
2024/01/12 10:06:08;;;;;;;9.50;5.80;;;;;;;-3.60;67.39;101202.53;4992702;28;20254;-59
2024/01/12 10:08:37;;;;;;;14.03;6.30;;;;;;;-3.56;67.34;101203.59;4993084;28;20588;-54
2024/01/12 10:11:05;;;;;;;9.33;5.27;;;;;;;-3.62;68.15;101200.66;4997797;28;20293;-57
2024/01/12 10:13:33;;;;;;;15.97;6.70;;;;;;;-3.55;68.24;101211.22;4996589;28;20726;-55
2024/01/12 10:16:02;;;;;;;12.70;6.10;;;;;;;-3.42;67.65;101216.28;4992698;28;20204;-54
2024/01/12 10:18:30;;;;;;;13.70;5.33;;;;;;;-3.47;67.58;101191.56;4985298;28;20210;-55
2024/01/12 10:21:02;;;;;;;10.40;5.17;;;;;;;-3.51;67.59;101187.97;4997031;28;20214;-55
2024/01/12 10:23:31;;;;;;;10.70;5.10;;;;;;;-3.57;68.00;101172.50;4993088;28;20270;-51
2024/01/12 10:26:01;;;;;;;8.40;5.27;;;;;;;-3.55;67.92;101187.69;4990983;28;20231;-56
2024/01/12 10:28:30;;;;;;;12.03;5.30;;;;;;;-3.53;68.21;101187.03;4990855;28;20244;-54
2024/01/12 10:30:58;;;;;;;11.00;5.27;;;;;;;-3.60;68.62;101189.94;4991872;28;20207;-53
2024/01/12 10:33:26;;;;;;;14.27;5.10;;;;;;;-3.60;69.10;101181.50;4991647;28;20286;-51
2024/01/12 10:36:04;;;;;;;10.43;5.20;;;;;;;-3.55;69.64;101177.63;4988931;28;20212;-62
2024/01/12 10:38:36;;;;;;;10.10;5.17;;;;;;;-3.52;69.36;101166.09;4997236;28;20807;-52
2024/01/12 10:41:07;;;;;;;10.30;5.70;;;;;;;-3.52;69.22;101166.09;4998774;28;20204;-59
2024/01/12 10:43:38;;;;;;;9.27;5.07;;;;;;;-3.47;69.29;101159.69;5000191;28;20287;-56
2024/01/12 10:46:12;;;;;;;12.40;6.43;;;;;;;-3.47;69.41;101162.19;4997414;28;20314;-53
2024/01/12 10:48:47;;;;;;;11.10;6.10;;;;;;;-3.51;69.99;101160.25;5004389;28;20675;-52
2024/01/12 10:51:19;;;;;;;11.77;6.10;;;;;;;-3.53;70.00;101160.97;4991046;28;20211;-62
2024/01/12 10:53:57;;;;;;;11.87;5.97;;;;;;;-3.56;71.22;101168.31;4991772;28;20203;-57
2024/01/12 10:56:26;;;;;;;11.60;5.97;;;;;;;-3.62;71.27;101153.69;4996663;28;20306;-59
2024/01/12 10:58:55;;;;;;;11.50;6.50;;;;;;;-3.65;72.58;101153.47;4994880;28;20300;-58
2024/01/12 11:01:24;;;;;;;13.57;6.53;;;;;;;-3.66;72.97;101141.69;4997809;28;20212;-59
2024/01/12 11:03:53;;;;;;;13.83;6.63;;;;;;;-3.62;73.62;101142.75;4995824;28;20223;-58
2024/01/12 11:06:23;;;;;;;14.03;7.07;;;;;;;-3.60;73.69;101142.06;4992400;28;20207;-60
2024/01/12 11:08:54;;;;;;;10.60;6.73;;;;;;;-3.63;73.72;101134.31;4997975;28;20302;-58
2024/01/12 11:11:24;;;;;;;14.67;8.30;;;;;;;-3.61;74.62;101134.41;4991368;28;20218;-60
2024/01/12 11:13:53;;;;;;;12.63;7.37;;;;;;;-3.62;74.64;101146.13;4991696;28;20239;-60
2024/01/12 11:16:21;;;;;;;14.43;7.70;;;;;;;-3.61;75.54;101136.91;4991346;28;20200;-54
2024/01/12 11:18:49;;;;;;;12.33;6.83;;;;;;;-3.57;75.53;101122.13;4989659;28;20697;-59
2024/01/12 11:21:24;;;;;;;13.27;8.20;;;;;;;-3.54;75.00;101127.31;4992002;28;20262;-54
2024/01/12 11:23:54;;;;;;;14.63;7.13;;;;;;;-3.54;74.43;101127.31;4998050;28;20273;-54
2024/01/12 11:26:24;;;;;;;13.37;8.40;;;;;;;-3.55;75.42;101130.63;4999855;28;20696;-55
2024/01/12 11:28:52;;;;;;;11.03;6.37;;;;;;;-3.56;74.82;101106.22;4990365;28;20291;-53
2024/01/12 11:31:26;;;;;;;12.07;6.60;;;;;;;-3.48;75.26;101110.06;4994312;28;20204;-59